Time;durP1;ratioP1;P1;durP2;ratioP2;P2;SDS_P1;SDS_P2;PMS_P1;PMS_P2;Temp;Humidity;BMP_temperature;BMP_pressure;BME280_temperature;BME280_humidity;BME280_pressure;Samples;Min_cycle;Max_cycle;Signal;HPM_P1;HPM_P2
2020/12/27 00:00:23;;;;;;;7.13;4.00;;;-1.30;23.60;;;;;;5015276;28;20042;-72
2020/12/27 00:02:50;;;;;;;6.32;4.10;;;-1.20;23.30;;;;;;5009165;28;20052;-73
2020/12/27 00:05:17;;;;;;;8.25;4.40;;;-1.30;24.00;;;;;;5008905;28;20053;-73
2020/12/27 00:07:48;;;;;;;8.32;4.40;;;-1.30;23.60;;;;;;5005919;28;20060;-75
2020/12/27 00:10:16;;;;;;;9.35;4.55;;;-1.20;23.20;;;;;;5008418;28;20493;-72
2020/12/27 00:12:44;;;;;;;8.57;4.63;;;-1.20;23.40;;;;;;5009996;28;20046;-73
2020/12/27 00:15:11;;;;;;;8.77;4.55;;;-1.20;23.20;;;;;;5009866;28;20101;-73
2020/12/27 00:17:38;;;;;;;7.82;3.88;;;-1.30;23.60;;;;;;5007420;28;20129;-73
2020/12/27 00:20:05;;;;;;;8.00;4.50;;;-1.30;23.80;;;;;;5010676;28;20042;-75
2020/12/27 00:22:32;;;;;;;7.82;4.95;;;-1.30;24.60;;;;;;5013207;28;20046;-74
2020/12/27 00:24:59;;;;;;;7.97;4.47;;;-1.30;24.30;;;;;;5024701;28;20057;-73
2020/12/27 00:27:26;;;;;;;8.40;4.90;;;-1.40;24.20;;;;;;5014559;28;20053;-72
2020/12/27 00:29:53;;;;;;;6.82;4.68;;;-1.40;25.00;;;;;;5010676;28;20046;-72
2020/12/27 00:32:20;;;;;;;7.40;3.97;;;-1.40;24.70;;;;;;5012622;28;20045;-72
2020/12/27 00:34:51;;;;;;;7.78;4.47;;;-1.40;24.80;;;;;;5013175;28;20057;-71
2020/12/27 00:37:19;;;;;;;7.47;4.32;;;-1.40;25.10;;;;;;5009886;28;20504;-71
2020/12/27 00:39:46;;;;;;;9.90;4.32;;;-1.20;23.40;;;;;;5013253;28;20042;-72
2020/12/27 00:42:13;;;;;;;8.40;4.38;;;-1.20;22.80;;;;;;5013428;28;20113;-71
2020/12/27 00:44:40;;;;;;;9.32;4.32;;;-1.20;22.40;;;;;;5010921;28;20091;-74
2020/12/27 00:47:08;;;;;;;7.80;4.50;;;-1.30;23.40;;;;;;5010699;28;20046;-71
2020/12/27 00:49:35;;;;;;;9.05;4.88;;;-1.30;23.80;;;;;;5008698;28;20042;-71
2020/12/27 00:52:05;;;;;;;8.82;5.13;;;-1.30;24.60;;;;;;5011156;28;20046;-70
2020/12/27 00:54:32;;;;;;;10.60;5.13;;;-1.40;23.90;;;;;;5008154;28;20058;-70
2020/12/27 00:56:59;;;;;;;8.77;4.85;;;-1.40;23.90;;;;;;5010063;28;20050;-72
2020/12/27 00:59:26;;;;;;;7.53;4.63;;;-1.40;24.60;;;;;;5010867;28;20041;-72
2020/12/27 01:01:55;;;;;;;16.88;4.75;;;-1.40;25.30;;;;;;5008816;28;20053;-72
2020/12/27 01:04:23;;;;;;;8.48;4.35;;;-1.40;25.20;;;;;;5011022;28;20046;-72
2020/12/27 01:06:51;;;;;;;9.65;5.15;;;-1.40;24.60;;;;;;5011179;28;20358;-72
2020/12/27 01:09:18;;;;;;;7.55;4.10;;;-1.40;24.30;;;;;;5008152;28;20069;-72
2020/12/27 01:11:46;;;;;;;7.50;4.43;;;-1.30;23.80;;;;;;5008311;28;20049;-72
2020/12/27 01:14:15;;;;;;;6.75;4.20;;;-1.30;23.50;;;;;;5010995;28;20141;-72
2020/12/27 01:16:47;;;;;;;8.50;4.50;;;-1.40;23.70;;;;;;5011089;28;20420;-71
2020/12/27 01:19:15;;;;;;;7.13;4.35;;;-1.30;23.40;;;;;;5011752;28;20045;-72
2020/12/27 01:21:43;;;;;;;10.77;4.88;;;-1.30;22.80;;;;;;5009472;28;20057;-71
2020/12/27 01:24:11;;;;;;;9.57;4.38;;;-1.40;23.10;;;;;;5014885;28;20500;-72
2020/12/27 01:26:38;;;;;;;7.57;4.18;;;-1.40;24.20;;;;;;5015984;28;20045;-72
2020/12/27 01:29:06;;;;;;;8.25;4.53;;;-1.40;23.90;;;;;;5014674;28;20044;-71
2020/12/27 01:31:33;;;;;;;8.30;4.85;;;-1.40;23.60;;;;;;5011709;28;20042;-72
2020/12/27 01:34:00;;;;;;;6.90;4.43;;;-1.40;24.40;;;;;;5012440;28;20765;-70
2020/12/27 01:36:29;;;;;;;7.57;4.18;;;-1.30;24.20;;;;;;5012298;28;20057;-71
2020/12/27 01:38:59;;;;;;;7.50;4.60;;;-1.30;23.50;;;;;;5009808;28;20050;-71
2020/12/27 01:41:26;;;;;;;8.25;4.35;;;-1.30;23.80;;;;;;5011073;28;20044;-72
2020/12/27 01:44:06;;;;;;;8.77;4.40;;;-1.40;24.00;;;;;;5013135;28;20060;-72
2020/12/27 01:46:34;;;;;;;8.98;4.20;;;-1.30;23.40;;;;;;5008422;28;20050;-72
2020/12/27 01:49:02;;;;;;;7.32;4.25;;;-1.30;23.80;;;;;;5006835;28;20690;-72
2020/12/27 01:51:29;;;;;;;9.07;4.78;;;-1.30;23.50;;;;;;5013088;28;20049;-72
2020/12/27 01:53:58;;;;;;;8.65;4.32;;;-1.30;24.50;;;;;;5011920;28;20470;-72
2020/12/27 01:56:30;;;;;;;8.73;4.30;;;-1.30;24.50;;;;;;5011375;28;20092;-72
2020/12/27 01:59:03;;;;;;;7.22;4.43;;;-1.20;23.40;;;;;;5010937;28;20049;-73
2020/12/27 02:01:31;;;;;;;6.90;4.43;;;-1.20;22.80;;;;;;5009366;28;20136;-71
2020/12/27 02:04:00;;;;;;;7.85;3.90;;;-1.30;23.30;;;;;;5009800;28;20424;-72
2020/12/27 02:06:28;;;;;;;10.70;4.28;;;-1.30;23.60;;;;;;5012023;28;20050;-71
2020/12/27 02:08:57;;;;;;;7.32;4.50;;;-1.30;24.20;;;;;;5008143;28;20046;-72
2020/12/27 02:11:26;;;;;;;9.10;5.10;;;-1.30;23.40;;;;;;5008961;28;20112;-72
2020/12/27 02:13:56;;;;;;;7.60;4.63;;;-1.20;23.10;;;;;;5012684;28;20058;-72
2020/12/27 02:16:26;;;;;;;10.07;4.90;;;-1.20;23.30;;;;;;5007128;28;20049;-72
2020/12/27 02:18:54;;;;;;;8.57;4.55;;;-1.30;23.30;;;;;;5009888;28;20065;-71
2020/12/27 02:21:21;;;;;;;8.75;4.70;;;-1.30;24.20;;;;;;5008199;28;20055;-71
2020/12/27 02:23:48;;;;;;;8.57;4.18;;;-1.30;24.50;;;;;;5010114;28;20153;-72
2020/12/27 02:26:16;;;;;;;7.60;4.72;;;-1.30;25.40;;;;;;5010161;28;20056;-71
2020/12/27 02:28:43;;;;;;;9.38;5.07;;;-1.30;25.40;;;;;;5008908;28;20046;-71
2020/12/27 02:31:10;;;;;;;7.75;4.90;;;-1.30;24.80;;;;;;5008360;28;20050;-71
2020/12/27 02:33:37;;;;;;;8.90;4.85;;;-1.30;24.60;;;;;;5011852;28;20432;-71
2020/12/27 02:36:08;;;;;;;8.48;4.75;;;-1.30;24.30;;;;;;5008459;28;20128;-71
2020/12/27 02:38:35;;;;;;;14.77;5.57;;;-1.30;24.60;;;;;;5009346;28;20123;-71
2020/12/27 02:41:02;;;;;;;9.77;5.72;;;-1.30;24.60;;;;;;5006228;28;20141;-71
2020/12/27 02:43:30;;;;;;;9.70;4.55;;;-1.30;24.50;;;;;;5009155;28;20412;-70
2020/12/27 02:45:57;;;;;;;8.50;5.25;;;-1.20;24.50;;;;;;4991109;28;20060;-71
2020/12/27 02:48:24;;;;;;;9.40;5.43;;;-1.20;24.10;;;;;;5011228;28;20054;-71
2020/12/27 02:50:51;;;;;;;9.27;4.90;;;-1.20;24.70;;;;;;5010535;28;20045;-71
2020/12/27 02:53:17;;;;;;;10.85;4.97;;;-1.20;24.60;;;;;;5011560;28;20053;-71
2020/12/27 02:55:46;;;;;;;8.25;4.55;;;-1.30;24.80;;;;;;5008380;28;20046;-71
2020/12/27 02:58:13;;;;;;;8.07;4.63;;;-1.30;24.90;;;;;;5010623;28;20050;-73
2020/12/27 03:00:41;;;;;;;8.68;4.80;;;-1.20;24.30;;;;;;5009495;28;20053;-73
2020/12/27 03:03:09;;;;;;;9.27;5.07;;;-1.20;23.70;;;;;;5009633;28;20058;-72
2020/12/27 03:05:36;;;;;;;8.80;4.57;;;-1.20;22.80;;;;;;5010100;28;20049;-71
2020/12/27 03:08:03;;;;;;;8.85;4.63;;;-1.20;22.50;;;;;;5007838;28;20152;-70
2020/12/27 03:10:31;;;;;;;8.57;4.20;;;-1.20;22.30;;;;;;5003446;28;20096;-72
2020/12/27 03:12:58;;;;;;;8.18;4.30;;;-1.20;22.10;;;;;;5008012;28;20058;-71
2020/12/27 03:15:26;;;;;;;8.75;4.50;;;-1.10;21.60;;;;;;5008094;28;20105;-71
2020/12/27 03:17:57;;;;;;;7.32;4.15;;;-1.10;20.30;;;;;;5008561;28;20108;-72
2020/12/27 03:20:23;;;;;;;7.57;4.25;;;-1.10;19.60;;;;;;5006453;28;20050;-74
2020/12/27 03:22:50;;;;;;;9.55;4.78;;;-1.00;19.40;;;;;;5008324;28;20056;-73
2020/12/27 03:25:18;;;;;;;6.97;3.92;;;-1.10;20.40;;;;;;5009043;28;20050;-72
2020/12/27 03:27:45;;;;;;;7.78;4.38;;;-1.10;19.80;;;;;;5007878;28;20057;-74
2020/12/27 03:30:12;;;;;;;7.72;4.30;;;-1.10;19.70;;;;;;5005398;28;20050;-72
2020/12/27 03:32:39;;;;;;;7.63;4.72;;;-1.20;20.00;;;;;;5008548;28;20057;-71
2020/12/27 03:35:07;;;;;;;8.07;5.03;;;-1.20;20.40;;;;;;5004379;28;20053;-71
2020/12/27 03:37:35;;;;;;;10.45;4.85;;;-1.20;20.70;;;;;;5007723;28;20046;-71
2020/12/27 03:40:04;;;;;;;6.38;4.47;;;-1.20;20.30;;;;;;5010136;28;20049;-71
2020/12/27 03:42:31;;;;;;;8.63;4.57;;;-1.30;19.70;;;;;;5010078;28;20056;-70
2020/12/27 03:44:58;;;;;;;7.20;4.40;;;-1.30;20.70;;;;;;5006487;28;20053;-73
2020/12/27 03:47:26;;;;;;;10.25;4.95;;;-1.30;20.80;;;;;;5009182;28;20049;-72
2020/12/27 03:49:53;;;;;;;6.97;4.57;;;-1.30;20.80;;;;;;5005988;28;20050;-72
2020/12/27 03:52:21;;;;;;;10.10;4.90;;;-1.40;20.40;;;;;;5008090;28;20405;-73
2020/12/27 03:54:47;;;;;;;8.15;4.97;;;-1.40;19.70;;;;;;5012345;28;20053;-73
2020/12/27 03:57:15;;;;;;;7.97;4.68;;;-1.40;20.10;;;;;;5011849;28;20061;-73
2020/12/27 03:59:42;;;;;;;8.90;5.35;;;-1.40;20.00;;;;;;5011791;28;20050;-74
2020/12/27 04:02:09;;;;;;;8.68;5.05;;;-1.50;19.80;;;;;;5012176;28;20393;-73
2020/12/27 04:04:36;;;;;;;9.75;5.20;;;-1.50;20.20;;;;;;5016758;28;20046;-72
2020/12/27 04:07:04;;;;;;;9.10;5.43;;;-1.50;20.00;;;;;;5015057;28;20046;-73
2020/12/27 04:09:32;;;;;;;10.05;5.43;;;-1.50;19.80;;;;;;5014926;28;20044;-72
2020/12/27 04:11:59;;;;;;;7.50;4.85;;;-1.50;20.10;;;;;;5012983;28;20054;-73
2020/12/27 04:14:26;;;;;;;10.93;5.05;;;-1.50;20.00;;;;;;5017210;28;20049;-72
2020/12/27 04:16:54;;;;;;;7.97;5.05;;;-1.50;19.30;;;;;;5015158;28;20579;-73
2020/12/27 04:19:21;;;;;;;10.95;5.05;;;-1.50;19.30;;;;;;5012963;28;20073;-72
2020/12/27 04:21:48;;;;;;;8.57;4.85;;;-1.50;19.90;;;;;;5012091;28;20111;-73
2020/12/27 04:24:16;;;;;;;9.35;5.10;;;-1.50;19.10;;;;;;5014600;28;20056;-72
2020/12/27 04:26:44;;;;;;;9.73;4.85;;;-1.60;19.10;;;;;;5012516;28;20134;-73
2020/12/27 04:29:11;;;;;;;8.15;4.97;;;-1.60;18.90;;;;;;5014561;28;20496;-72
2020/12/27 04:31:38;;;;;;;10.73;6.10;;;-1.60;18.90;;;;;;5014154;28;20057;-71
2020/12/27 04:34:05;;;;;;;10.00;4.78;;;-1.60;18.80;;;;;;5015027;28;20053;-73
2020/12/27 04:36:32;;;;;;;10.73;5.13;;;-1.70;18.80;;;;;;5016752;28;20068;-72
2020/12/27 04:38:59;;;;;;;9.27;5.38;;;-1.70;19.50;;;;;;5015878;28;20396;-71
2020/12/27 04:41:26;;;;;;;8.15;5.05;;;-1.70;19.60;;;;;;5017290;28;20049;-71
2020/12/27 04:43:55;;;;;;;10.00;6.07;;;-1.80;19.50;;;;;;5017009;28;20050;-72
2020/12/27 04:46:22;;;;;;;9.15;4.95;;;-1.70;19.60;;;;;;5019792;28;20541;-72
2020/12/27 04:48:53;;;;;;;10.13;5.43;;;-1.70;19.70;;;;;;5012383;28;20050;-72
2020/12/27 04:51:21;;;;;;;9.55;5.78;;;-1.70;19.30;;;;;;5014642;28;20045;-72
2020/12/27 04:53:49;;;;;;;11.00;5.50;;;-1.70;19.70;;;;;;5015378;28;20056;-71
2020/12/27 04:56:19;;;;;;;10.18;5.28;;;-1.80;19.80;;;;;;5014528;28;20061;-71
2020/12/27 04:58:47;;;;;;;9.95;5.28;;;-1.80;20.10;;;;;;5006019;28;20049;-72
2020/12/27 05:01:15;;;;;;;10.20;5.70;;;-1.80;20.10;;;;;;5012594;28;20069;-71
2020/12/27 05:03:43;;;;;;;8.50;5.00;;;-1.80;20.20;;;;;;5012942;28;20080;-71
2020/12/27 05:06:14;;;;;;;8.07;5.15;;;-1.80;19.60;;;;;;5012868;28;20188;-72
2020/12/27 05:08:43;;;;;;;9.20;4.95;;;-1.80;19.70;;;;;;5009814;28;20489;-71
2020/12/27 05:11:14;;;;;;;8.07;4.78;;;-1.80;20.00;;;;;;5012033;28;20050;-71
2020/12/27 05:13:44;;;;;;;9.32;5.05;;;-1.70;19.80;;;;;;5014866;28;20049;-72
2020/12/27 05:16:14;;;;;;;8.77;5.20;;;-1.80;19.70;;;;;;5012117;28;20118;-71
2020/12/27 05:18:43;;;;;;;9.75;4.45;;;-1.80;20.00;;;;;;5009932;28;20053;-70
2020/12/27 05:21:11;;;;;;;11.05;5.05;;;-1.80;19.50;;;;;;5012596;28;20587;-70
2020/12/27 05:23:38;;;;;;;8.43;4.38;;;-1.80;19.90;;;;;;5013025;28;20112;-71
2020/12/27 05:26:06;;;;;;;10.30;5.50;;;-1.70;20.00;;;;;;5009548;28;20050;-71
2020/12/27 05:28:34;;;;;;;9.77;4.93;;;-1.80;19.80;;;;;;5010317;28;20408;-70
2020/12/27 05:31:11;;;;;;;11.82;5.32;;;-1.80;19.80;;;;;;5007012;28;20400;-71
2020/12/27 05:33:39;;;;;;;8.05;5.22;;;-1.80;20.20;;;;;;5012612;28;20057;-72
2020/12/27 05:36:07;;;;;;;7.20;4.43;;;-1.80;20.10;;;;;;5010773;28;20161;-72
2020/12/27 05:38:34;;;;;;;9.20;4.95;;;-1.80;19.70;;;;;;5010924;28;20096;-74
2020/12/27 05:41:02;;;;;;;10.27;5.10;;;-1.80;20.50;;;;;;5012408;28;20041;-72
2020/12/27 05:43:29;;;;;;;8.35;4.70;;;-1.70;19.70;;;;;;5012642;28;20116;-72
2020/12/27 05:45:57;;;;;;;7.90;4.70;;;-1.70;19.90;;;;;;5009880;28;20085;-74
2020/12/27 05:48:25;;;;;;;8.45;4.72;;;-1.70;19.80;;;;;;5007435;28;20042;-72
2020/12/27 05:50:52;;;;;;;11.07;5.82;;;-1.70;19.40;;;;;;5004649;28;20041;-73
2020/12/27 05:53:22;;;;;;;23.13;10.73;;;-1.70;19.50;;;;;;5008907;28;20060;-72
2020/12/27 05:55:52;;;;;;;30.67;12.73;;;-1.70;19.60;;;;;;5009906;28;20045;-73
2020/12/27 05:58:21;;;;;;;13.77;6.63;;;-1.60;20.00;;;;;;5005273;28;20042;-72
2020/12/27 06:00:52;;;;;;;10.80;5.32;;;-1.60;19.00;;;;;;5009064;28;20046;-71
2020/12/27 06:03:23;;;;;;;8.02;5.22;;;-1.60;19.60;;;;;;5008799;28;20054;-72
2020/12/27 06:06:08;;;;;;;8.25;4.30;;;-1.60;18.90;;;;;;5006861;28;20057;-71
2020/12/27 06:09:08;;;;;;;10.75;4.70;;;-1.50;19.20;;;;;;5011106;28;20069;-71
2020/12/27 06:11:53;;;;;;;7.93;5.20;;;-1.50;19.30;;;;;;5008627;28;20133;-73
2020/12/27 06:14:44;;;;;;;;;;;-1.50;18.90;;;;;;5013818;28;20124;-72
2020/12/27 06:17:15;;;;;;;10.65;6.13;;;-1.50;19.00;;;;;;5006907;28;19928;-72
2020/12/27 06:19:59;;;;;;;7.93;5.03;;;-1.50;19.70;;;;;;5010639;28;20049;-73
2020/12/27 06:22:29;;;;;;;9.05;5.20;;;-1.50;19.80;;;;;;5011286;28;20042;-73
2020/12/27 06:25:00;;;;;;;10.77;4.93;;;-1.50;19.40;;;;;;5008487;28;20124;-72
2020/12/27 06:27:29;;;;;;;8.63;5.10;;;-1.50;19.50;;;;;;5010938;28;20065;-72
2020/12/27 06:30:01;;;;;;;9.07;5.25;;;-1.40;19.80;;;;;;5010781;28;20046;-72
2020/12/27 06:32:32;;;;;;;6.70;4.78;;;-1.50;20.00;;;;;;5012813;28;20048;-71
2020/12/27 06:35:05;;;;;;;9.23;4.57;;;-1.50;19.70;;;;;;5010846;28;20045;-71
2020/12/27 06:37:40;;;;;;;9.27;5.28;;;-1.40;19.40;;;;;;5011251;28;20050;-71
2020/12/27 06:40:09;;;;;;;9.20;4.95;;;-1.40;19.70;;;;;;5010556;28;20562;-70
2020/12/27 06:42:37;;;;;;;10.18;5.15;;;-1.30;19.10;;;;;;5008028;28;20123;-71
2020/12/27 06:45:06;;;;;;;9.52;4.18;;;-1.20;19.10;;;;;;5011991;28;20046;-71
2020/12/27 06:47:47;;;;;;;8.30;4.10;;;-1.20;18.70;;;;;;5010616;28;20056;-71
2020/12/27 06:50:16;;;;;;;8.82;4.38;;;-1.20;18.70;;;;;;5007879;28;20049;-73
2020/12/27 06:52:43;;;;;;;6.85;3.88;;;-1.10;18.70;;;;;;5010818;28;20060;-73
2020/12/27 06:55:12;;;;;;;11.23;4.80;;;-1.20;19.10;;;;;;5007676;28;20049;-71
2020/12/27 06:57:44;;;;;;;6.30;4.05;;;-1.20;19.10;;;;;;5010431;28;20656;-73
2020/12/27 07:00:19;;;;;;;9.05;4.70;;;-1.10;18.00;;;;;;5007766;28;20046;-71
2020/12/27 07:02:48;;;;;;;8.52;4.63;;;-1.10;18.70;;;;;;5015203;28;20096;-71
2020/12/27 07:05:33;;;;;;;6.60;4.22;;;-1.10;18.80;;;;;;5007109;28;20507;-73
2020/12/27 07:08:03;;;;;;;8.65;4.38;;;-1.10;18.20;;;;;;5006924;28;20072;-72
2020/12/27 07:10:32;;;;;;;9.52;4.20;;;-1.10;18.10;;;;;;5011488;28;20050;-71
2020/12/27 07:13:07;;;;;;;10.20;5.18;;;-1.10;17.70;;;;;;5011678;28;20053;-71
2020/12/27 07:15:35;;;;;;;9.10;4.00;;;-1.10;17.50;;;;;;5008239;28;20496;-70
2020/12/27 07:18:09;;;;;;;7.47;4.28;;;-1.10;18.00;;;;;;5009139;28;20527;-71
2020/12/27 07:20:43;;;;;;;15.70;5.43;;;-1.10;17.60;;;;;;5006636;28;20061;-71
2020/12/27 07:23:18;;;;;;;7.45;3.97;;;-1.10;17.50;;;;;;5011293;28;20412;-72
2020/12/27 07:25:51;;;;;;;7.07;4.25;;;-1.10;17.50;;;;;;5011780;28;20046;-71
2020/12/27 07:28:19;;;;;;;8.13;4.03;;;-1.10;17.40;;;;;;5010320;28;20064;-72
2020/12/27 07:30:47;;;;;;;8.00;4.03;;;-1.10;17.70;;;;;;5018083;28;20053;-72
2020/12/27 07:33:16;;;;;;;8.50;4.70;;;-1.20;17.60;;;;;;5015855;28;20112;-70
2020/12/27 07:35:43;;;;;;;12.63;4.47;;;-1.10;17.70;;;;;;5017022;28;20466;-72
2020/12/27 07:38:10;;;;;;;6.95;4.47;;;-1.10;17.20;;;;;;5014214;28;20054;-70
2020/12/27 07:40:38;;;;;;;12.00;5.30;;;-1.10;17.70;;;;;;5010845;28;20061;-71
2020/12/27 07:43:10;;;;;;;9.52;5.32;;;-1.20;18.10;;;;;;4996419;28;20052;-71
2020/12/27 07:45:38;;;;;;;7.53;4.65;;;-1.20;18.50;;;;;;5013109;28;20132;-72
2020/12/27 07:48:06;;;;;;;7.85;4.68;;;-1.20;18.50;;;;;;5012666;28;20057;-71
2020/12/27 07:50:33;;;;;;;10.32;5.40;;;-1.20;18.50;;;;;;5015050;28;20054;-72
2020/12/27 07:53:00;;;;;;;8.73;5.03;;;-1.20;18.70;;;;;;5014630;28;20045;-70
2020/12/27 07:55:41;;;;;;;9.40;5.28;;;-1.10;18.20;;;;;;5013619;28;20046;-70
2020/12/27 07:58:09;;;;;;;8.88;4.75;;;-1.10;17.60;;;;;;5013656;28;20073;-71
2020/12/27 08:00:39;;;;;;;8.88;4.75;;;-1.00;17.80;;;;;;5016758;28;20070;-70
2020/12/27 08:03:07;;;;;;;9.63;5.65;;;-1.00;17.70;;;;;;5013041;28;20054;-71
2020/12/27 08:05:35;;;;;;;12.32;6.13;;;-1.00;17.40;;;;;;5010568;28;20107;-70
2020/12/27 08:08:04;;;;;;;7.65;4.90;;;-0.90;17.80;;;;;;5012321;28;20045;-71
2020/12/27 08:10:31;;;;;;;8.63;4.50;;;-0.90;17.50;;;;;;5009403;28;20054;-70
2020/12/27 08:13:00;;;;;;;9.75;5.00;;;-0.80;17.50;;;;;;5013381;28;20045;-70
2020/12/27 08:15:29;;;;;;;8.82;4.47;;;-0.80;17.10;;;;;;5011176;28;20046;-71
2020/12/27 08:18:00;;;;;;;6.57;3.97;;;-0.70;16.70;;;;;;5013250;28;20148;-70
2020/12/27 08:20:30;;;;;;;9.45;5.25;;;-0.70;17.20;;;;;;5011889;28;20137;-71
2020/12/27 08:23:02;;;;;;;7.13;4.28;;;-0.70;17.30;;;;;;5017217;28;20053;-70
2020/12/27 08:25:31;;;;;;;7.60;4.38;;;-0.70;16.60;;;;;;5011484;28;20056;-70
2020/12/27 08:27:59;;;;;;;5.47;3.65;;;-0.60;16.20;;;;;;5013210;28;20050;-70
2020/12/27 08:30:28;;;;;;;7.32;3.95;;;-0.50;16.00;;;;;;5011723;28;20045;-69
2020/12/27 08:33:12;;;;;;;8.18;4.72;;;-0.40;15.40;;;;;;5017560;28;20042;-70
2020/12/27 08:35:42;;;;;;;7.57;4.28;;;-0.40;14.50;;;;;;5011099;28;20125;-70
2020/12/27 08:38:36;;;;;;;8.82;4.32;;;-0.30;14.70;;;;;;5019189;28;20081;-71
2020/12/27 08:41:15;;;;;;;7.88;3.63;;;-0.30;13.70;;;;;;4995668;28;20161;-70
2020/12/27 08:44:13;;;;;;;7.95;3.67;;;-0.20;12.80;;;;;;5014193;28;20045;-70
2020/12/27 08:46:43;;;;;;;6.13;3.60;;;-0.10;12.90;;;;;;4997891;28;20104;-70
2020/12/27 08:49:29;;;;;;;8.38;4.43;;;-0.10;12.70;;;;;;5010041;28;20042;-72
2020/12/27 08:52:07;;;;;;;6.75;3.50;;;0.00;12.30;;;;;;5014635;28;20046;-71
2020/12/27 08:54:34;;;;;;;9.93;4.13;;;0.00;11.90;;;;;;5010906;28;20504;-71
2020/12/27 08:57:04;;;;;;;6.63;4.10;;;0.00;12.00;;;;;;5011722;28;20058;-71
2020/12/27 08:59:31;;;;;;;5.88;3.58;;;0.00;11.90;;;;;;5013183;28;20060;-69
2020/12/27 09:02:09;;;;;;;6.88;4.15;;;0.10;12.20;;;;;;5010653;28;20560;-70
2020/12/27 09:04:37;;;;;;;9.07;4.22;;;0.10;11.90;;;;;;5009666;28;20140;-70
2020/12/27 09:07:04;;;;;;;7.47;4.00;;;0.00;12.60;;;;;;5010746;28;20470;-69
2020/12/27 09:09:31;;;;;;;7.20;3.60;;;0.10;11.50;;;;;;5010270;28;20129;-73
2020/12/27 09:11:59;;;;;;;6.15;4.07;;;0.10;11.90;;;;;;5009597;28;20046;-70
2020/12/27 09:14:35;;;;;;;6.68;3.58;;;0.10;11.50;;;;;;5010544;28;20064;-69
2020/12/27 09:17:04;;;;;;;7.13;4.60;;;0.10;11.50;;;;;;5013855;28;20500;-72
2020/12/27 09:19:35;;;;;;;6.63;3.50;;;0.20;11.60;;;;;;5012194;28;20046;-70
2020/12/27 09:22:05;;;;;;;5.95;3.80;;;0.30;11.10;;;;;;5014721;28;20092;-70
2020/12/27 09:24:33;;;;;;;7.68;4.45;;;0.30;10.00;;;;;;5011554;28;20055;-73
2020/12/27 09:27:08;;;;;;;4.75;3.00;;;0.40;9.60;;;;;;5009675;28;20526;-71
2020/12/27 09:29:35;;;;;;;5.63;3.15;;;0.60;8.00;;;;;;5010439;28;20046;-70
2020/12/27 09:32:10;;;;;;;5.38;3.47;;;0.70;7.20;;;;;;5010623;28;20049;-72
2020/12/27 09:34:40;;;;;;;;;;;0.60;7.40;;;;;;5012829;28;20058;-70
2020/12/27 09:37:15;;;;;;;6.55;3.95;;;0.70;7.80;;;;;;5010666;28;20004;-70
2020/12/27 09:39:42;;;;;;;5.68;3.40;;;0.70;7.70;;;;;;5008140;28;20138;-70
2020/12/27 09:42:20;;;;;;;6.32;4.30;;;0.70;7.90;;;;;;5010142;28;21269;-71
2020/12/27 09:44:47;;;;;;;6.70;3.97;;;0.80;7.20;;;;;;5015891;28;20051;-71
2020/12/27 09:47:22;;;;;;;8.20;3.13;;;0.90;7.10;;;;;;5014080;28;20053;-71
2020/12/27 09:50:01;;;;;;;5.20;3.22;;;1.00;6.80;;;;;;5010446;28;20082;-72
2020/12/27 09:52:28;;;;;;;6.80;3.15;;;1.20;6.50;;;;;;5014983;28;20121;-71
2020/12/27 09:54:56;;;;;;;4.45;2.90;;;1.30;6.60;;;;;;5011639;28;20056;-72
2020/12/27 09:57:27;;;;;;;5.63;3.42;;;1.40;6.70;;;;;;5012349;28;20673;-73
2020/12/27 09:59:55;;;;;;;3.40;2.65;;;1.40;6.70;;;;;;5009052;28;20059;-74
2020/12/27 10:02:22;;;;;;;4.60;2.80;;;1.50;6.80;;;;;;5009911;28;20435;-74
2020/12/27 10:04:49;;;;;;;7.80;2.80;;;1.50;6.70;;;;;;5010545;28;20046;-73
2020/12/27 10:07:18;;;;;;;4.93;2.95;;;1.60;6.80;;;;;;5011271;28;20129;-73
2020/12/27 10:09:45;;;;;;;5.47;2.55;;;1.60;6.80;;;;;;5010793;28;20538;-72
2020/12/27 10:12:12;;;;;;;6.38;2.92;;;1.70;5.90;;;;;;5011132;28;20045;-74
2020/12/27 10:14:39;;;;;;;4.40;2.72;;;1.70;6.20;;;;;;5010262;28;20048;-71
2020/12/27 10:17:07;;;;;;;4.70;2.67;;;1.60;6.00;;;;;;5011298;28;20069;-70
2020/12/27 10:19:34;;;;;;;4.82;3.05;;;1.70;4.50;;;;;;5011833;28;20054;-73
2020/12/27 10:22:02;;;;;;;5.35;3.17;;;1.60;3.70;;;;;;5011496;28;20423;-71
2020/12/27 10:24:32;;;;;;;7.45;3.08;;;1.60;3.40;;;;;;5008976;28;20160;-72
2020/12/27 10:27:00;;;;;;;7.53;3.45;;;1.60;3.20;;;;;;5009215;28;20046;-72
2020/12/27 10:29:27;;;;;;;5.38;2.80;;;1.70;2.90;;;;;;5009756;28;20052;-74
2020/12/27 10:31:56;;;;;;;16.88;3.70;;;1.80;1.90;;;;;;5010237;28;20042;-71
2020/12/27 10:34:23;;;;;;;7.10;3.28;;;1.70;2.70;;;;;;5009916;28;20385;-73
2020/12/27 10:36:52;;;;;;;4.63;3.00;;;1.70;2.00;;;;;;5008561;28;20069;-72
2020/12/27 10:39:22;;;;;;;14.50;4.47;;;1.80;1.40;;;;;;5008935;28;20587;-74
2020/12/27 10:41:51;;;;;;;6.78;2.90;;;1.70;1.00;;;;;;5008857;28;20141;-71
2020/12/27 10:44:18;;;;;;;6.45;3.00;;;1.60;1.00;;;;;;5012454;28;20479;-73
2020/12/27 10:46:45;;;;;;;7.10;3.60;;;1.50;1.00;;;;;;5011099;28;20140;-73
2020/12/27 10:49:13;;;;;;;5.60;3.53;;;1.40;1.20;;;;;;5008381;28;20048;-74
2020/12/27 10:51:41;;;;;;;9.40;3.70;;;1.50;1.10;;;;;;5008390;28;20053;-75
2020/12/27 10:54:11;;;;;;;6.47;3.90;;;1.30;1.60;;;;;;5005322;28;20065;-72
2020/12/27 10:56:39;;;;;;;6.25;4.15;;;1.20;1.00;;;;;;5009414;28;20060;-73
2020/12/27 10:59:08;;;;;;;7.00;4.78;;;1.30;1.50;;;;;;5009069;28;20189;-74
2020/12/27 11:01:35;;;;;;;12.73;5.10;;;1.40;1.80;;;;;;5010329;28;20092;-75
2020/12/27 11:04:03;;;;;;;11.82;5.20;;;1.30;2.20;;;;;;5008173;28;20519;-74
2020/12/27 11:06:31;;;;;;;7.18;5.15;;;1.20;2.70;;;;;;5010634;28;20512;-72
2020/12/27 11:09:01;;;;;;;15.23;5.70;;;1.30;3.00;;;;;;5007556;28;20053;-75
2020/12/27 11:11:33;;;;;;;10.10;5.18;;;1.30;3.10;;;;;;5009603;28;20046;-71
2020/12/27 11:14:00;;;;;;;9.05;5.47;;;1.30;3.10;;;;;;5005305;28;20046;-70
2020/12/27 11:16:31;;;;;;;14.10;5.97;;;1.20;3.50;;;;;;5006574;28;20061;-73
2020/12/27 11:18:59;;;;;;;8.05;5.22;;;1.20;3.70;;;;;;5009835;28;20463;-73
2020/12/27 11:21:26;;;;;;;11.23;5.40;;;1.30;3.60;;;;;;5009929;28;20046;-73
2020/12/27 11:23:53;;;;;;;13.90;4.60;;;1.20;3.30;;;;;;5008757;28;20065;-71
2020/12/27 11:26:20;;;;;;;19.13;5.47;;;1.30;3.40;;;;;;5008529;28;20050;-73
2020/12/27 11:28:48;;;;;;;9.40;4.88;;;1.30;3.40;;;;;;5007361;28;20148;-72
2020/12/27 11:31:16;;;;;;;7.07;4.82;;;1.30;3.40;;;;;;5009590;28;20053;-69
2020/12/27 11:33:45;;;;;;;12.50;5.57;;;1.30;3.70;;;;;;5008195;28;20060;-72
2020/12/27 11:36:12;;;;;;;8.85;5.00;;;1.20;3.70;;;;;;5009566;28;20053;-72
2020/12/27 11:38:39;;;;;;;12.07;5.20;;;1.20;4.20;;;;;;5007919;28;20509;-72
2020/12/27 11:41:06;;;;;;;10.93;4.85;;;1.10;4.10;;;;;;5008748;28;20042;-73
2020/12/27 11:43:34;;;;;;;10.23;5.00;;;1.30;4.70;;;;;;5007928;28;20049;-72
2020/12/27 11:46:02;;;;;;;7.93;5.43;;;1.20;5.10;;;;;;5008602;28;20129;-73
2020/12/27 11:48:29;;;;;;;11.60;4.88;;;1.30;4.70;;;;;;5010439;28;20050;-72
2020/12/27 11:50:57;;;;;;;8.40;4.72;;;1.40;4.70;;;;;;5006209;28;20050;-73
2020/12/27 11:53:24;;;;;;;9.85;4.70;;;1.40;4.60;;;;;;5008721;28;20106;-72
2020/12/27 11:55:51;;;;;;;7.75;5.35;;;1.40;5.10;;;;;;4988564;28;20128;-73
2020/12/27 11:58:19;;;;;;;6.95;4.63;;;1.50;4.60;;;;;;5007657;28;20049;-72
2020/12/27 12:00:45;;;;;;;8.40;5.00;;;1.60;5.20;;;;;;5010240;28;20045;-72
2020/12/27 12:03:13;;;;;;;10.50;5.35;;;1.60;4.70;;;;;;5005929;28;20587;-72
2020/12/27 12:05:40;;;;;;;11.65;5.68;;;1.60;5.30;;;;;;5004247;28;20056;-71
2020/12/27 12:08:08;;;;;;;10.82;4.88;;;1.70;5.60;;;;;;5000572;28;20060;-72
2020/12/27 12:10:35;;;;;;;10.10;5.00;;;1.80;5.40;;;;;;4998903;28;20053;-72
2020/12/27 12:13:03;;;;;;;8.63;5.50;;;1.70;6.20;;;;;;5008499;28;20050;-70
2020/12/27 12:15:29;;;;;;;9.00;4.80;;;1.70;5.40;;;;;;5008913;28;20180;-72
2020/12/27 12:17:56;;;;;;;9.63;5.00;;;1.90;6.00;;;;;;5008176;28;20046;-71
2020/12/27 12:23:09;;;;;;;9.05;5.22;;;1.90;6.50;;;;;;5011960;28;20042;-69
2020/12/27 12:25:39;;;;;;;11.00;4.93;;;1.80;6.20;;;;;;5012714;28;20160;-72
2020/12/27 12:28:06;;;;;;;7.57;5.03;;;1.90;7.00;;;;;;5009210;28;20520;-73
2020/12/27 12:30:32;;;;;;;9.93;4.60;;;2.00;6.40;;;;;;5009896;28;20594;-73
2020/12/27 12:32:59;;;;;;;8.18;5.25;;;2.00;6.60;;;;;;5014365;28;20415;-70
2020/12/27 12:35:26;;;;;;;8.68;4.13;;;2.10;6.80;;;;;;5019010;28;20057;-70
2020/12/27 12:37:53;;;;;;;7.78;4.28;;;2.00;5.90;;;;;;5015326;28;20055;-70
2020/12/27 12:40:24;;;;;;;6.03;4.28;;;1.90;6.40;;;;;;5016142;28;20041;-69
2020/12/27 12:42:52;;;;;;;12.73;4.28;;;2.10;6.50;;;;;;5014551;28;20057;-69
2020/12/27 12:45:18;;;;;;;9.00;4.82;;;2.20;6.30;;;;;;5011499;28;20062;-70
2020/12/27 12:47:45;;;;;;;9.15;4.40;;;2.10;6.70;;;;;;5008153;28;20050;-70
2020/12/27 12:50:13;;;;;;;7.95;3.85;;;2.10;6.80;;;;;;5011031;28;20536;-71
2020/12/27 12:52:40;;;;;;;9.02;4.60;;;2.10;7.10;;;;;;5011381;28;20052;-70
2020/12/27 12:55:08;;;;;;;7.65;4.35;;;2.10;7.10;;;;;;5009713;28;20084;-71
2020/12/27 12:57:36;;;;;;;8.50;4.20;;;2.10;7.20;;;;;;5009907;28;20056;-70
2020/12/27 13:00:04;;;;;;;6.55;4.35;;;2.10;7.20;;;;;;5010131;28;20057;-71
2020/12/27 13:02:30;;;;;;;9.23;4.40;;;2.10;7.20;;;;;;5011439;28;20168;-71